sensor_id;sensor_type;location;lat;lon;timestamp;P1;durP1;ratioP1;P2;durP2;ratioP2
21878;SDS011;27908;42.708;23.278;2023-06-24T00:02:05;24.73;;;13.83;;
21878;SDS011;27908;42.708;23.278;2023-06-24T00:04:31;21.23;;;12.97;;
21878;SDS011;27908;42.708;23.278;2023-06-24T00:06:56;21.67;;;13.45;;
21878;SDS011;27908;42.708;23.278;2023-06-24T00:09:27;20.83;;;12.47;;
21878;SDS011;27908;42.708;23.278;2023-06-24T00:11:56;20.80;;;12.20;;
21878;SDS011;27908;42.708;23.278;2023-06-24T00:14:24;24.40;;;12.93;;
21878;SDS011;27908;42.708;23.278;2023-06-24T00:16:51;21.88;;;13.52;;
21878;SDS011;27908;42.708;23.278;2023-06-24T00:19:21;21.30;;;13.80;;
21878;SDS011;27908;42.708;23.278;2023-06-24T00:21:51;23.73;;;12.97;;
21878;SDS011;27908;42.708;23.278;2023-06-24T00:24:17;26.25;;;14.10;;
21878;SDS011;27908;42.708;23.278;2023-06-24T00:26:45;23.98;;;13.55;;
21878;SDS011;27908;42.708;23.278;2023-06-24T00:29:11;22.08;;;13.52;;
21878;SDS011;27908;42.708;23.278;2023-06-24T00:31:36;24.10;;;13.27;;
21878;SDS011;27908;42.708;23.278;2023-06-24T00:34:02;22.17;;;13.90;;
21878;SDS011;27908;42.708;23.278;2023-06-24T00:36:27;23.45;;;13.13;;
21878;SDS011;27908;42.708;23.278;2023-06-24T00:38:53;20.37;;;12.40;;
21878;SDS011;27908;42.708;23.278;2023-06-24T00:41:18;20.20;;;12.77;;
21878;SDS011;27908;42.708;23.278;2023-06-24T00:43:44;21.65;;;12.82;;
21878;SDS011;27908;42.708;23.278;2023-06-24T00:46:10;22.30;;;13.65;;
21878;SDS011;27908;42.708;23.278;2023-06-24T00:48:36;20.67;;;12.40;;
21878;SDS011;27908;42.708;23.278;2023-06-24T00:51:01;25.80;;;13.47;;
21878;SDS011;27908;42.708;23.278;2023-06-24T00:53:27;22.00;;;13.60;;
21878;SDS011;27908;42.708;23.278;2023-06-24T00:55:53;22.40;;;13.47;;
21878;SDS011;27908;42.708;23.278;2023-06-24T00:58:20;20.48;;;13.18;;
21878;SDS011;27908;42.708;23.278;2023-06-24T01:00:46;25.15;;;13.55;;
21878;SDS011;27908;42.708;23.278;2023-06-24T01:03:22;23.85;;;13.85;;
21878;SDS011;27908;42.708;23.278;2023-06-24T01:05:48;21.30;;;13.23;;
21878;SDS011;27908;42.708;23.278;2023-06-24T01:08:14;23.48;;;12.73;;
21878;SDS011;27908;42.708;23.278;2023-06-24T01:10:40;21.08;;;13.07;;
21878;SDS011;27908;42.708;23.278;2023-06-24T01:13:06;23.47;;;13.17;;
21878;SDS011;27908;42.708;23.278;2023-06-24T01:15:32;23.83;;;14.10;;
21878;SDS011;27908;42.708;23.278;2023-06-24T01:20:27;23.43;;;13.03;;
21878;SDS011;27908;42.708;23.278;2023-06-24T01:23:15;23.52;;;12.88;;
21878;SDS011;27908;42.708;23.278;2023-06-24T01:35:11;23.73;;;13.25;;
21878;SDS011;27908;42.708;23.278;2023-06-24T01:37:45;26.17;;;14.73;;
21878;SDS011;27908;42.708;23.278;2023-06-24T01:40:33;25.02;;;14.05;;
21878;SDS011;27908;42.708;23.278;2023-06-24T01:43:05;26.88;;;13.73;;
21878;SDS011;27908;42.708;23.278;2023-06-24T01:45:36;22.80;;;14.53;;
21878;SDS011;27908;42.708;23.278;2023-06-24T01:48:24;22.92;;;13.73;;
21878;SDS011;27908;42.708;23.278;2023-06-24T01:51:01;22.40;;;14.35;;
21878;SDS011;27908;42.708;23.278;2023-06-24T01:53:34;25.58;;;13.80;;
21878;SDS011;27908;42.708;23.278;2023-06-24T01:56:05;21.38;;;13.65;;
21878;SDS011;27908;42.708;23.278;2023-06-24T01:58:32;24.10;;;13.83;;
21878;SDS011;27908;42.708;23.278;2023-06-24T02:01:01;22.83;;;13.32;;
21878;SDS011;27908;42.708;23.278;2023-06-24T02:03:28;27.98;;;14.18;;
21878;SDS011;27908;42.708;23.278;2023-06-24T02:05:56;22.25;;;13.32;;
21878;SDS011;27908;42.708;23.278;2023-06-24T02:08:23;25.52;;;14.75;;
21878;SDS011;27908;42.708;23.278;2023-06-24T02:10:50;24.67;;;13.87;;
21878;SDS011;27908;42.708;23.278;2023-06-24T02:13:16;25.38;;;13.65;;
21878;SDS011;27908;42.708;23.278;2023-06-24T02:15:43;23.58;;;14.15;;
21878;SDS011;27908;42.708;23.278;2023-06-24T02:18:12;23.90;;;14.50;;
21878;SDS011;27908;42.708;23.278;2023-06-24T02:20:40;24.73;;;13.23;;
21878;SDS011;27908;42.708;23.278;2023-06-24T02:23:09;24.95;;;13.13;;
21878;SDS011;27908;42.708;23.278;2023-06-24T02:25:36;21.83;;;13.60;;
21878;SDS011;27908;42.708;23.278;2023-06-24T02:28:06;25.63;;;13.57;;
21878;SDS011;27908;42.708;23.278;2023-06-24T02:30:34;24.63;;;13.85;;
21878;SDS011;27908;42.708;23.278;2023-06-24T02:33:01;24.70;;;13.33;;
21878;SDS011;27908;42.708;23.278;2023-06-24T02:35:26;23.77;;;13.52;;
21878;SDS011;27908;42.708;23.278;2023-06-24T02:37:52;23.67;;;15.10;;
21878;SDS011;27908;42.708;23.278;2023-06-24T02:40:18;23.80;;;14.77;;
21878;SDS011;27908;42.708;23.278;2023-06-24T02:42:43;26.80;;;14.37;;
21878;SDS011;27908;42.708;23.278;2023-06-24T02:45:09;25.20;;;14.53;;
21878;SDS011;27908;42.708;23.278;2023-06-24T02:47:34;23.98;;;13.52;;
21878;SDS011;27908;42.708;23.278;2023-06-24T02:50:02;22.80;;;13.63;;
21878;SDS011;27908;42.708;23.278;2023-06-24T02:52:30;24.52;;;13.95;;
21878;SDS011;27908;42.708;23.278;2023-06-24T02:54:58;21.03;;;13.20;;
21878;SDS011;27908;42.708;23.278;2023-06-24T02:57:24;26.48;;;13.93;;
21878;SDS011;27908;42.708;23.278;2023-06-24T02:59:51;23.35;;;13.90;;
21878;SDS011;27908;42.708;23.278;2023-06-24T03:02:17;25.67;;;14.20;;
21878;SDS011;27908;42.708;23.278;2023-06-24T03:04:42;25.83;;;14.20;;
21878;SDS011;27908;42.708;23.278;2023-06-24T03:07:09;28.40;;;14.30;;
21878;SDS011;27908;42.708;23.278;2023-06-24T03:09:36;25.23;;;14.85;;
21878;SDS011;27908;42.708;23.278;2023-06-24T03:12:01;25.07;;;14.10;;
21878;SDS011;27908;42.708;23.278;2023-06-24T03:14:27;24.60;;;13.93;;
21878;SDS011;27908;42.708;23.278;2023-06-24T03:16:53;22.67;;;13.88;;
21878;SDS011;27908;42.708;23.278;2023-06-24T03:19:19;26.30;;;14.20;;
21878;SDS011;27908;42.708;23.278;2023-06-24T03:21:44;26.47;;;14.33;;
21878;SDS011;27908;42.708;23.278;2023-06-24T03:24:09;23.33;;;13.80;;
21878;SDS011;27908;42.708;23.278;2023-06-24T03:26:36;22.60;;;13.67;;
21878;SDS011;27908;42.708;23.278;2023-06-24T03:29:03;23.73;;;13.45;;
21878;SDS011;27908;42.708;23.278;2023-06-24T03:31:29;25.70;;;13.67;;
21878;SDS011;27908;42.708;23.278;2023-06-24T03:33:54;21.50;;;13.35;;
21878;SDS011;27908;42.708;23.278;2023-06-24T03:36:20;21.97;;;13.37;;
21878;SDS011;27908;42.708;23.278;2023-06-24T03:38:45;24.35;;;13.65;;
21878;SDS011;27908;42.708;23.278;2023-06-24T03:41:11;22.53;;;12.83;;
21878;SDS011;27908;42.708;23.278;2023-06-24T03:43:37;22.57;;;13.80;;
21878;SDS011;27908;42.708;23.278;2023-06-24T03:46:02;24.00;;;14.18;;
21878;SDS011;27908;42.708;23.278;2023-06-24T03:48:28;26.23;;;14.63;;
21878;SDS011;27908;42.708;23.278;2023-06-24T03:50:53;24.67;;;13.73;;
21878;SDS011;27908;42.708;23.278;2023-06-24T03:53:19;22.57;;;14.73;;
21878;SDS011;27908;42.708;23.278;2023-06-24T03:55:44;22.30;;;13.83;;
21878;SDS011;27908;42.708;23.278;2023-06-24T03:58:10;22.97;;;14.30;;
21878;SDS011;27908;42.708;23.278;2023-06-24T04:00:35;24.15;;;13.98;;
21878;SDS011;27908;42.708;23.278;2023-06-24T04:03:05;25.23;;;14.98;;
21878;SDS011;27908;42.708;23.278;2023-06-24T04:05:32;26.67;;;14.67;;
21878;SDS011;27908;42.708;23.278;2023-06-24T04:07:58;24.23;;;15.38;;
21878;SDS011;27908;42.708;23.278;2023-06-24T04:10:24;26.80;;;15.53;;
21878;SDS011;27908;42.708;23.278;2023-06-24T04:12:49;26.60;;;16.10;;
21878;SDS011;27908;42.708;23.278;2023-06-24T04:15:15;26.73;;;15.87;;
21878;SDS011;27908;42.708;23.278;2023-06-24T04:17:40;24.88;;;15.65;;
21878;SDS011;27908;42.708;23.278;2023-06-24T04:20:06;28.33;;;15.80;;
21878;SDS011;27908;42.708;23.278;2023-06-24T04:22:33;25.52;;;16.40;;
21878;SDS011;27908;42.708;23.278;2023-06-24T04:25:01;28.25;;;15.95;;
21878;SDS011;27908;42.708;23.278;2023-06-24T04:27:27;31.93;;;16.10;;
21878;SDS011;27908;42.708;23.278;2023-06-24T04:29:52;27.50;;;14.77;;
21878;SDS011;27908;42.708;23.278;2023-06-24T04:32:18;25.87;;;15.20;;
21878;SDS011;27908;42.708;23.278;2023-06-24T04:34:43;22.23;;;14.77;;
21878;SDS011;27908;42.708;23.278;2023-06-24T04:37:08;24.25;;;13.90;;
21878;SDS011;27908;42.708;23.278;2023-06-24T04:39:34;23.90;;;14.27;;
21878;SDS011;27908;42.708;23.278;2023-06-24T04:41:59;26.23;;;15.07;;
21878;SDS011;27908;42.708;23.278;2023-06-24T04:44:25;22.63;;;13.33;;
21878;SDS011;27908;42.708;23.278;2023-06-24T04:46:51;24.73;;;15.90;;
21878;SDS011;27908;42.708;23.278;2023-06-24T04:49:17;24.80;;;14.38;;
21878;SDS011;27908;42.708;23.278;2023-06-24T04:51:43;27.07;;;14.27;;
21878;SDS011;27908;42.708;23.278;2023-06-24T04:54:09;24.48;;;14.45;;
21878;SDS011;27908;42.708;23.278;2023-06-24T04:56:34;25.27;;;15.33;;
21878;SDS011;27908;42.708;23.278;2023-06-24T04:59:00;24.90;;;13.63;;
21878;SDS011;27908;42.708;23.278;2023-06-24T05:01:26;53.63;;;31.67;;
21878;SDS011;27908;42.708;23.278;2023-06-24T05:03:51;33.67;;;20.63;;
21878;SDS011;27908;42.708;23.278;2023-06-24T05:06:17;25.83;;;14.97;;
21878;SDS011;27908;42.708;23.278;2023-06-24T05:08:42;25.67;;;16.97;;
21878;SDS011;27908;42.708;23.278;2023-06-24T05:11:08;25.33;;;14.37;;
21878;SDS011;27908;42.708;23.278;2023-06-24T05:13:33;26.80;;;15.95;;
21878;SDS011;27908;42.708;23.278;2023-06-24T05:15:59;44.47;;;26.77;;
21878;SDS011;27908;42.708;23.278;2023-06-24T05:18:24;48.20;;;28.33;;
21878;SDS011;27908;42.708;23.278;2023-06-24T05:20:49;67.17;;;42.20;;
21878;SDS011;27908;42.708;23.278;2023-06-24T05:23:15;29.38;;;18.00;;
21878;SDS011;27908;42.708;23.278;2023-06-24T05:25:40;82.30;;;48.67;;
21878;SDS011;27908;42.708;23.278;2023-06-24T05:28:06;69.20;;;45.73;;
21878;SDS011;27908;42.708;23.278;2023-06-24T05:30:31;79.33;;;51.63;;
21878;SDS011;27908;42.708;23.278;2023-06-24T05:32:57;65.95;;;40.05;;
21878;SDS011;27908;42.708;23.278;2023-06-24T05:35:22;26.43;;;15.93;;
21878;SDS011;27908;42.708;23.278;2023-06-24T05:37:48;22.33;;;13.47;;
21878;SDS011;27908;42.708;23.278;2023-06-24T05:40:13;22.27;;;13.77;;
21878;SDS011;27908;42.708;23.278;2023-06-24T05:42:38;51.20;;;33.75;;
21878;SDS011;27908;42.708;23.278;2023-06-24T05:45:04;57.60;;;36.57;;
21878;SDS011;27908;42.708;23.278;2023-06-24T05:47:31;77.53;;;41.78;;
21878;SDS011;27908;42.708;23.278;2023-06-24T05:49:57;25.40;;;15.15;;
21878;SDS011;27908;42.708;23.278;2023-06-24T05:52:22;54.83;;;30.73;;
21878;SDS011;27908;42.708;23.278;2023-06-24T05:54:48;40.80;;;24.17;;
21878;SDS011;27908;42.708;23.278;2023-06-24T05:57:13;36.50;;;22.03;;
21878;SDS011;27908;42.708;23.278;2023-06-24T05:59:38;52.72;;;33.80;;
21878;SDS011;27908;42.708;23.278;2023-06-24T06:02:04;29.03;;;16.17;;
21878;SDS011;27908;42.708;23.278;2023-06-24T06:04:30;27.40;;;14.43;;
21878;SDS011;27908;42.708;23.278;2023-06-24T06:06:55;26.43;;;15.90;;
21878;SDS011;27908;42.708;23.278;2023-06-24T06:09:21;35.97;;;22.87;;
21878;SDS011;27908;42.708;23.278;2023-06-24T06:11:47;24.38;;;13.55;;
21878;SDS011;27908;42.708;23.278;2023-06-24T06:14:12;49.20;;;30.67;;
21878;SDS011;27908;42.708;23.278;2023-06-24T06:16:38;26.00;;;14.90;;
21878;SDS011;27908;42.708;23.278;2023-06-24T06:19:04;48.50;;;30.73;;
21878;SDS011;27908;42.708;23.278;2023-06-24T06:21:29;33.92;;;22.58;;
21878;SDS011;27908;42.708;23.278;2023-06-24T06:23:55;29.03;;;18.53;;
21878;SDS011;27908;42.708;23.278;2023-06-24T06:26:20;27.40;;;17.67;;
21878;SDS011;27908;42.708;23.278;2023-06-24T06:28:46;21.65;;;13.07;;
21878;SDS011;27908;42.708;23.278;2023-06-24T06:31:15;38.53;;;25.83;;
21878;SDS011;27908;42.708;23.278;2023-06-24T06:33:41;22.83;;;12.75;;
21878;SDS011;27908;42.708;23.278;2023-06-24T06:36:07;21.00;;;12.40;;
21878;SDS011;27908;42.708;23.278;2023-06-24T06:38:33;19.00;;;11.68;;
21878;SDS011;27908;42.708;23.278;2023-06-24T06:40:59;23.50;;;12.27;;
21878;SDS011;27908;42.708;23.278;2023-06-24T06:43:25;20.97;;;12.60;;
21878;SDS011;27908;42.708;23.278;2023-06-24T06:45:50;17.98;;;12.25;;
21878;SDS011;27908;42.708;23.278;2023-06-24T06:48:15;17.70;;;11.73;;
21878;SDS011;27908;42.708;23.278;2023-06-24T06:50:41;23.60;;;14.30;;
21878;SDS011;27908;42.708;23.278;2023-06-24T06:53:06;22.07;;;13.00;;
21878;SDS011;27908;42.708;23.278;2023-06-24T06:55:32;17.33;;;11.48;;
21878;SDS011;27908;42.708;23.278;2023-06-24T06:57:57;19.00;;;12.40;;
21878;SDS011;27908;42.708;23.278;2023-06-24T07:00:23;20.43;;;11.57;;
21878;SDS011;27908;42.708;23.278;2023-06-24T07:02:48;20.07;;;11.63;;
21878;SDS011;27908;42.708;23.278;2023-06-24T07:05:14;19.77;;;11.20;;
21878;SDS011;27908;42.708;23.278;2023-06-24T07:07:39;18.03;;;10.37;;
21878;SDS011;27908;42.708;23.278;2023-06-24T07:10:05;19.17;;;10.40;;
21878;SDS011;27908;42.708;23.278;2023-06-24T07:12:31;18.50;;;11.20;;
21878;SDS011;27908;42.708;23.278;2023-06-24T07:14:56;19.23;;;11.15;;
21878;SDS011;27908;42.708;23.278;2023-06-24T07:17:22;18.33;;;11.87;;
21878;SDS011;27908;42.708;23.278;2023-06-24T07:19:48;17.50;;;10.47;;
21878;SDS011;27908;42.708;23.278;2023-06-24T07:22:13;17.33;;;10.23;;
21878;SDS011;27908;42.708;23.278;2023-06-24T07:24:39;17.17;;;10.77;;
21878;SDS011;27908;42.708;23.278;2023-06-24T07:27:05;21.05;;;11.02;;
21878;SDS011;27908;42.708;23.278;2023-06-24T07:29:31;18.30;;;11.40;;
21878;SDS011;27908;42.708;23.278;2023-06-24T07:31:56;20.17;;;10.00;;
21878;SDS011;27908;42.708;23.278;2023-06-24T07:34:22;17.80;;;10.63;;
21878;SDS011;27908;42.708;23.278;2023-06-24T07:36:47;18.67;;;12.27;;
21878;SDS011;27908;42.708;23.278;2023-06-24T07:39:12;17.20;;;10.45;;
21878;SDS011;27908;42.708;23.278;2023-06-24T07:41:38;18.67;;;9.97;;
21878;SDS011;27908;42.708;23.278;2023-06-24T07:44:04;16.73;;;10.80;;
21878;SDS011;27908;42.708;23.278;2023-06-24T07:46:29;18.43;;;10.33;;
21878;SDS011;27908;42.708;23.278;2023-06-24T07:48:55;15.33;;;10.20;;
21878;SDS011;27908;42.708;23.278;2023-06-24T07:51:21;15.40;;;9.90;;
21878;SDS011;27908;42.708;23.278;2023-06-24T07:53:46;18.57;;;10.90;;
21878;SDS011;27908;42.708;23.278;2023-06-24T07:56:12;17.40;;;10.07;;
21878;SDS011;27908;42.708;23.278;2023-06-24T07:58:37;16.83;;;10.05;;
21878;SDS011;27908;42.708;23.278;2023-06-24T08:01:03;15.37;;;10.60;;
21878;SDS011;27908;42.708;23.278;2023-06-24T08:03:29;15.90;;;10.38;;
21878;SDS011;27908;42.708;23.278;2023-06-24T08:05:54;22.47;;;10.93;;
21878;SDS011;27908;42.708;23.278;2023-06-24T08:08:21;19.05;;;11.25;;
21878;SDS011;27908;42.708;23.278;2023-06-24T08:10:46;15.48;;;11.23;;
21878;SDS011;27908;42.708;23.278;2023-06-24T08:13:12;15.30;;;10.30;;
21878;SDS011;27908;42.708;23.278;2023-06-24T08:15:37;17.40;;;11.27;;
21878;SDS011;27908;42.708;23.278;2023-06-24T08:18:03;18.63;;;10.75;;
21878;SDS011;27908;42.708;23.278;2023-06-24T08:20:28;15.63;;;10.50;;
21878;SDS011;27908;42.708;23.278;2023-06-24T08:22:54;14.70;;;10.03;;
21878;SDS011;27908;42.708;23.278;2023-06-24T08:25:19;16.73;;;10.73;;
21878;SDS011;27908;42.708;23.278;2023-06-24T08:27:45;16.98;;;10.80;;
21878;SDS011;27908;42.708;23.278;2023-06-24T08:30:12;16.80;;;10.40;;
21878;SDS011;27908;42.708;23.278;2023-06-24T08:32:40;22.63;;;14.02;;
21878;SDS011;27908;42.708;23.278;2023-06-24T08:35:05;19.27;;;10.50;;
21878;SDS011;27908;42.708;23.278;2023-06-24T08:37:32;32.57;;;20.03;;
21878;SDS011;27908;42.708;23.278;2023-06-24T08:39:59;20.98;;;14.38;;
21878;SDS011;27908;42.708;23.278;2023-06-24T08:42:24;26.10;;;18.17;;
21878;SDS011;27908;42.708;23.278;2023-06-24T08:44:49;21.35;;;12.55;;
21878;SDS011;27908;42.708;23.278;2023-06-24T08:47:15;16.60;;;10.17;;
21878;SDS011;27908;42.708;23.278;2023-06-24T08:49:46;18.30;;;11.00;;
21878;SDS011;27908;42.708;23.278;2023-06-24T08:52:14;17.93;;;11.10;;
21878;SDS011;27908;42.708;23.278;2023-06-24T08:54:41;17.67;;;11.15;;
21878;SDS011;27908;42.708;23.278;2023-06-24T08:57:11;18.40;;;10.50;;
21878;SDS011;27908;42.708;23.278;2023-06-24T08:59:39;16.63;;;10.32;;
21878;SDS011;27908;42.708;23.278;2023-06-24T09:02:06;16.75;;;10.20;;
21878;SDS011;27908;42.708;23.278;2023-06-24T09:04:31;15.23;;;10.03;;
21878;SDS011;27908;42.708;23.278;2023-06-24T09:06:57;17.23;;;10.00;;
21878;SDS011;27908;42.708;23.278;2023-06-24T09:09:23;15.97;;;10.50;;
21878;SDS011;27908;42.708;23.278;2023-06-24T09:11:52;15.23;;;10.20;;
21878;SDS011;27908;42.708;23.278;2023-06-24T09:14:25;16.80;;;10.60;;
21878;SDS011;27908;42.708;23.278;2023-06-24T09:16:55;17.40;;;10.57;;
21878;SDS011;27908;42.708;23.278;2023-06-24T09:19:22;15.80;;;10.45;;
21878;SDS011;27908;42.708;23.278;2023-06-24T09:21:48;16.65;;;10.48;;
21878;SDS011;27908;42.708;23.278;2023-06-24T09:24:14;17.50;;;10.35;;
21878;SDS011;27908;42.708;23.278;2023-06-24T09:26:41;16.13;;;9.83;;
21878;SDS011;27908;42.708;23.278;2023-06-24T09:29:09;17.90;;;9.98;;
21878;SDS011;27908;42.708;23.278;2023-06-24T09:31:36;14.83;;;10.07;;
21878;SDS011;27908;42.708;23.278;2023-06-24T09:34:14;17.60;;;10.10;;
21878;SDS011;27908;42.708;23.278;2023-06-24T09:36:44;15.90;;;10.35;;
21878;SDS011;27908;42.708;23.278;2023-06-24T09:39:10;16.63;;;10.05;;
21878;SDS011;27908;42.708;23.278;2023-06-24T09:41:39;15.43;;;9.73;;
21878;SDS011;27908;42.708;23.278;2023-06-24T09:44:07;15.37;;;9.73;;
21878;SDS011;27908;42.708;23.278;2023-06-24T09:46:37;15.77;;;10.10;;
21878;SDS011;27908;42.708;23.278;2023-06-24T09:49:05;14.75;;;9.85;;
21878;SDS011;27908;42.708;23.278;2023-06-24T09:51:33;18.45;;;10.20;;
21878;SDS011;27908;42.708;23.278;2023-06-24T09:54:07;15.93;;;9.40;;
21878;SDS011;27908;42.708;23.278;2023-06-24T09:56:36;13.53;;;8.67;;
21878;SDS011;27908;42.708;23.278;2023-06-24T09:59:03;15.10;;;9.82;;
21878;SDS011;27908;42.708;23.278;2023-06-24T10:01:30;16.52;;;9.70;;
21878;SDS011;27908;42.708;23.278;2023-06-24T10:04:03;14.55;;;9.23;;
21878;SDS011;27908;42.708;23.278;2023-06-24T10:06:30;14.65;;;9.75;;
21878;SDS011;27908;42.708;23.278;2023-06-24T10:08:57;15.20;;;9.33;;
21878;SDS011;27908;42.708;23.278;2023-06-24T10:11:23;14.82;;;9.30;;
21878;SDS011;27908;42.708;23.278;2023-06-24T10:13:48;17.63;;;9.53;;
21878;SDS011;27908;42.708;23.278;2023-06-24T10:16:15;16.93;;;9.63;;
21878;SDS011;27908;42.708;23.278;2023-06-24T10:18:40;19.43;;;9.70;;
21878;SDS011;27908;42.708;23.278;2023-06-24T10:21:07;14.00;;;9.75;;
21878;SDS011;27908;42.708;23.278;2023-06-24T10:23:36;14.55;;;9.15;;
21878;SDS011;27908;42.708;23.278;2023-06-24T10:26:23;12.97;;;8.80;;
21878;SDS011;27908;42.708;23.278;2023-06-24T10:37:09;14.10;;;8.35;;
21878;SDS011;27908;42.708;23.278;2023-06-24T10:39:40;13.17;;;8.30;;
21878;SDS011;27908;42.708;23.278;2023-06-24T10:44:49;15.02;;;8.18;;
21878;SDS011;27908;42.708;23.278;2023-06-24T10:47:15;13.30;;;8.30;;
21878;SDS011;27908;42.708;23.278;2023-06-24T10:49:41;15.02;;;8.95;;
21878;SDS011;27908;42.708;23.278;2023-06-24T10:52:07;14.83;;;8.70;;
21878;SDS011;27908;42.708;23.278;2023-06-24T10:54:34;13.10;;;8.38;;
21878;SDS011;27908;42.708;23.278;2023-06-24T10:57:02;14.73;;;8.73;;
21878;SDS011;27908;42.708;23.278;2023-06-24T10:59:33;15.18;;;8.10;;
21878;SDS011;27908;42.708;23.278;2023-06-24T11:01:59;14.15;;;7.43;;
21878;SDS011;27908;42.708;23.278;2023-06-24T11:04:25;12.63;;;7.00;;
21878;SDS011;27908;42.708;23.278;2023-06-24T11:06:56;12.23;;;7.05;;
21878;SDS011;27908;42.708;23.278;2023-06-24T11:09:26;10.90;;;6.53;;
21878;SDS011;27908;42.708;23.278;2023-06-24T11:11:51;13.57;;;6.90;;
21878;SDS011;27908;42.708;23.278;2023-06-24T11:14:17;12.67;;;6.67;;
21878;SDS011;27908;42.708;23.278;2023-06-24T11:16:47;12.95;;;7.47;;
21878;SDS011;27908;42.708;23.278;2023-06-24T11:19:13;14.43;;;6.78;;
21878;SDS011;27908;42.708;23.278;2023-06-24T11:21:38;11.73;;;7.20;;
21878;SDS011;27908;42.708;23.278;2023-06-24T11:24:04;13.05;;;6.85;;
21878;SDS011;27908;42.708;23.278;2023-06-24T11:26:30;12.43;;;7.63;;
21878;SDS011;27908;42.708;23.278;2023-06-24T11:28:56;12.93;;;7.50;;
21878;SDS011;27908;42.708;23.278;2023-06-24T11:31:27;12.73;;;7.30;;
21878;SDS011;27908;42.708;23.278;2023-06-24T11:33:53;11.85;;;6.78;;
21878;SDS011;27908;42.708;23.278;2023-06-24T11:36:18;12.97;;;7.67;;
21878;SDS011;27908;42.708;23.278;2023-06-24T11:38:47;16.15;;;7.40;;
21878;SDS011;27908;42.708;23.278;2023-06-24T11:41:14;13.63;;;7.82;;
21878;SDS011;27908;42.708;23.278;2023-06-24T11:43:44;13.10;;;6.63;;
21878;SDS011;27908;42.708;23.278;2023-06-24T11:46:10;14.20;;;6.78;;
21878;SDS011;27908;42.708;23.278;2023-06-24T11:48:39;12.43;;;6.47;;
21878;SDS011;27908;42.708;23.278;2023-06-24T11:51:11;9.57;;;6.18;;
21878;SDS011;27908;42.708;23.278;2023-06-24T11:53:41;14.60;;;6.68;;
21878;SDS011;27908;42.708;23.278;2023-06-24T11:56:08;10.70;;;6.13;;
21878;SDS011;27908;42.708;23.278;2023-06-24T11:58:34;13.73;;;6.47;;
21878;SDS011;27908;42.708;23.278;2023-06-24T12:01:02;12.20;;;6.68;;
21878;SDS011;27908;42.708;23.278;2023-06-24T12:03:31;11.00;;;6.30;;
21878;SDS011;27908;42.708;23.278;2023-06-24T12:05:58;13.05;;;5.63;;
21878;SDS011;27908;42.708;23.278;2023-06-24T12:08:24;13.50;;;5.43;;
21878;SDS011;27908;42.708;23.278;2023-06-24T12:10:49;12.20;;;6.30;;
21878;SDS011;27908;42.708;23.278;2023-06-24T12:13:15;13.03;;;8.50;;
21878;SDS011;27908;42.708;23.278;2023-06-24T12:15:40;12.50;;;7.28;;
21878;SDS011;27908;42.708;23.278;2023-06-24T12:18:06;10.73;;;5.93;;
21878;SDS011;27908;42.708;23.278;2023-06-24T12:20:32;13.80;;;7.60;;
21878;SDS011;27908;42.708;23.278;2023-06-24T12:22:59;32.53;;;18.45;;
21878;SDS011;27908;42.708;23.278;2023-06-24T12:25:25;11.97;;;6.63;;
21878;SDS011;27908;42.708;23.278;2023-06-24T12:27:51;20.67;;;9.35;;
21878;SDS011;27908;42.708;23.278;2023-06-24T12:30:16;12.40;;;6.27;;
21878;SDS011;27908;42.708;23.278;2023-06-24T12:32:42;12.70;;;6.95;;
21878;SDS011;27908;42.708;23.278;2023-06-24T12:35:08;16.83;;;6.83;;
21878;SDS011;27908;42.708;23.278;2023-06-24T12:37:34;12.13;;;7.50;;
21878;SDS011;27908;42.708;23.278;2023-06-24T12:40:00;12.27;;;5.97;;
21878;SDS011;27908;42.708;23.278;2023-06-24T12:42:26;15.25;;;6.95;;
21878;SDS011;27908;42.708;23.278;2023-06-24T12:44:52;10.93;;;6.80;;
21878;SDS011;27908;42.708;23.278;2023-06-24T12:47:18;10.32;;;6.35;;
21878;SDS011;27908;42.708;23.278;2023-06-24T12:49:44;10.05;;;6.38;;
21878;SDS011;27908;42.708;23.278;2023-06-24T12:52:10;11.33;;;6.43;;
21878;SDS011;27908;42.708;23.278;2023-06-24T12:54:37;13.48;;;7.00;;
21878;SDS011;27908;42.708;23.278;2023-06-24T12:57:02;17.13;;;7.03;;
21878;SDS011;27908;42.708;23.278;2023-06-24T12:59:28;15.57;;;8.03;;
21878;SDS011;27908;42.708;23.278;2023-06-24T13:01:53;15.17;;;8.80;;
21878;SDS011;27908;42.708;23.278;2023-06-24T13:04:18;14.00;;;7.87;;
21878;SDS011;27908;42.708;23.278;2023-06-24T13:06:46;13.25;;;7.22;;
21878;SDS011;27908;42.708;23.278;2023-06-24T13:09:12;11.83;;;6.77;;
21878;SDS011;27908;42.708;23.278;2023-06-24T13:11:38;18.40;;;7.97;;
21878;SDS011;27908;42.708;23.278;2023-06-24T13:14:04;15.20;;;8.77;;
21878;SDS011;27908;42.708;23.278;2023-06-24T13:16:29;16.10;;;7.53;;
21878;SDS011;27908;42.708;23.278;2023-06-24T13:18:55;16.77;;;7.87;;
21878;SDS011;27908;42.708;23.278;2023-06-24T13:21:20;14.93;;;7.60;;
21878;SDS011;27908;42.708;23.278;2023-06-24T13:23:46;14.50;;;8.37;;
21878;SDS011;27908;42.708;23.278;2023-06-24T13:26:13;19.92;;;8.98;;
21878;SDS011;27908;42.708;23.278;2023-06-24T13:28:38;19.73;;;7.10;;
21878;SDS011;27908;42.708;23.278;2023-06-24T13:31:04;17.53;;;7.67;;
21878;SDS011;27908;42.708;23.278;2023-06-24T13:33:30;17.47;;;6.57;;
21878;SDS011;27908;42.708;23.278;2023-06-24T13:35:55;19.52;;;6.60;;
21878;SDS011;27908;42.708;23.278;2023-06-24T13:38:21;16.67;;;4.90;;
21878;SDS011;27908;42.708;23.278;2023-06-24T13:40:46;12.10;;;4.95;;
21878;SDS011;27908;42.708;23.278;2023-06-24T13:43:12;19.50;;;5.80;;
21878;SDS011;27908;42.708;23.278;2023-06-24T13:45:37;15.53;;;5.17;;
21878;SDS011;27908;42.708;23.278;2023-06-24T13:48:03;14.48;;;5.97;;
21878;SDS011;27908;42.708;23.278;2023-06-24T13:50:28;16.70;;;6.40;;
21878;SDS011;27908;42.708;23.278;2023-06-24T13:52:57;15.75;;;6.82;;
21878;SDS011;27908;42.708;23.278;2023-06-24T13:55:22;16.23;;;6.57;;
21878;SDS011;27908;42.708;23.278;2023-06-24T13:57:48;14.70;;;6.43;;
21878;SDS011;27908;42.708;23.278;2023-06-24T14:00:14;18.50;;;6.60;;
21878;SDS011;27908;42.708;23.278;2023-06-24T14:02:41;15.35;;;6.28;;
21878;SDS011;27908;42.708;23.278;2023-06-24T14:05:06;18.23;;;7.00;;
21878;SDS011;27908;42.708;23.278;2023-06-24T14:07:33;10.52;;;4.70;;
21878;SDS011;27908;42.708;23.278;2023-06-24T14:09:59;12.93;;;5.30;;
21878;SDS011;27908;42.708;23.278;2023-06-24T14:12:24;13.50;;;5.63;;
21878;SDS011;27908;42.708;23.278;2023-06-24T14:14:50;15.27;;;6.15;;
21878;SDS011;27908;42.708;23.278;2023-06-24T14:17:16;16.00;;;7.13;;
21878;SDS011;27908;42.708;23.278;2023-06-24T14:19:42;19.40;;;6.60;;
21878;SDS011;27908;42.708;23.278;2023-06-24T14:22:07;18.30;;;6.97;;
21878;SDS011;27908;42.708;23.278;2023-06-24T14:24:33;14.00;;;6.10;;
21878;SDS011;27908;42.708;23.278;2023-06-24T14:26:59;17.75;;;6.50;;
21878;SDS011;27908;42.708;23.278;2023-06-24T14:29:25;13.40;;;6.80;;
21878;SDS011;27908;42.708;23.278;2023-06-24T14:31:51;16.83;;;6.23;;
21878;SDS011;27908;42.708;23.278;2023-06-24T14:34:17;15.77;;;6.60;;